sensor_id;sensor_type;location;lat;lon;timestamp;pressure;altitude;pressure_sealevel;temperature;humidity
43147;BME280;28752;48.266;7.402;2023-04-06T00:00:12;99705.91;;;2.60;68.69
43147;BME280;28752;48.266;7.402;2023-04-06T00:02:37;99703.44;;;2.57;68.78
43147;BME280;28752;48.266;7.402;2023-04-06T00:05:03;99696.59;;;2.40;68.94
43147;BME280;28752;48.266;7.402;2023-04-06T00:07:29;99696.41;;;2.43;68.58
43147;BME280;28752;48.266;7.402;2023-04-06T00:09:55;99686.75;;;2.29;68.58
43147;BME280;28752;48.266;7.402;2023-04-06T00:12:20;99700.94;;;2.40;68.88
43147;BME280;28752;48.266;7.402;2023-04-06T00:14:46;99698.50;;;2.37;69.18
43147;BME280;28752;48.266;7.402;2023-04-06T00:17:11;99699.53;;;2.34;70.27
43147;BME280;28752;48.266;7.402;2023-04-06T00:19:36;99700.63;;;2.30;69.67
43147;BME280;28752;48.266;7.402;2023-04-06T00:22:02;99697.53;;;2.23;69.67
43147;BME280;28752;48.266;7.402;2023-04-06T00:24:27;99692.56;;;2.19;71.20
43147;BME280;28752;48.266;7.402;2023-04-06T00:26:53;99691.53;;;2.21;70.37
43147;BME280;28752;48.266;7.402;2023-04-06T00:29:19;99690.09;;;2.16;71.23
43147;BME280;28752;48.266;7.402;2023-04-06T00:31:45;99682.63;;;2.09;71.15
43147;BME280;28752;48.266;7.402;2023-04-06T00:34:10;99687.84;;;2.09;69.33
43147;BME280;28752;48.266;7.402;2023-04-06T00:36:35;99685.31;;;2.08;70.10
43147;BME280;28752;48.266;7.402;2023-04-06T00:39:01;99681.13;;;2.05;71.39
43147;BME280;28752;48.266;7.402;2023-04-06T00:41:26;99681.13;;;2.05;71.80
43147;BME280;28752;48.266;7.402;2023-04-06T00:43:53;99681.94;;;2.06;72.32
43147;BME280;28752;48.266;7.402;2023-04-06T00:46:19;99672.75;;;1.99;72.72
43147;BME280;28752;48.266;7.402;2023-04-06T00:48:45;99677.00;;;2.01;71.88
43147;BME280;28752;48.266;7.402;2023-04-06T00:51:10;99651.03;;;1.82;72.12
43147;BME280;28752;48.266;7.402;2023-04-06T00:53:36;99670.25;;;1.97;72.44
43147;BME280;28752;48.266;7.402;2023-04-06T00:56:01;99663.44;;;1.94;71.82
43147;BME280;28752;48.266;7.402;2023-04-06T00:58:26;99666.72;;;1.98;70.29
43147;BME280;28752;48.266;7.402;2023-04-06T01:00:52;99668.66;;;1.94;70.96
43147;BME280;28752;48.266;7.402;2023-04-06T01:03:17;99660.31;;;1.88;71.25
43147;BME280;28752;48.266;7.402;2023-04-06T01:05:43;99669.75;;;1.90;70.90
43147;BME280;28752;48.266;7.402;2023-04-06T01:08:09;99657.44;;;1.92;67.53
43147;BME280;28752;48.266;7.402;2023-04-06T01:10:34;99658.78;;;2.00;68.06
43147;BME280;28752;48.266;7.402;2023-04-06T01:13:00;99661.56;;;1.97;67.71
43147;BME280;28752;48.266;7.402;2023-04-06T01:15:26;99653.75;;;1.97;66.73
43147;BME280;28752;48.266;7.402;2023-04-06T01:17:52;99651.03;;;1.98;67.15
43147;BME280;28752;48.266;7.402;2023-04-06T01:20:17;99647.00;;;1.92;67.10
43147;BME280;28752;48.266;7.402;2023-04-06T01:22:43;99649.69;;;1.91;68.61
43147;BME280;28752;48.266;7.402;2023-04-06T01:25:09;99639.84;;;1.80;69.50
43147;BME280;28752;48.266;7.402;2023-04-06T01:27:34;99642.03;;;1.88;70.08
43147;BME280;28752;48.266;7.402;2023-04-06T01:30:00;99648.25;;;1.85;70.80
43147;BME280;28752;48.266;7.402;2023-04-06T01:32:25;99640.59;;;1.82;69.63
43147;BME280;28752;48.266;7.402;2023-04-06T01:34:51;99642.38;;;1.82;69.87
43147;BME280;28752;48.266;7.402;2023-04-06T01:37:16;99638.31;;;1.76;70.09
43147;BME280;28752;48.266;7.402;2023-04-06T01:39:43;99638.84;;;1.67;70.42
43147;BME280;28752;48.266;7.402;2023-04-06T01:42:08;99633.88;;;1.62;71.09
43147;BME280;28752;48.266;7.402;2023-04-06T01:44:33;99635.72;;;1.60;70.64
43147;BME280;28752;48.266;7.402;2023-04-06T01:46:59;99633.03;;;1.62;70.62
43147;BME280;28752;48.266;7.402;2023-04-06T01:49:25;99621.56;;;1.48;71.31
43147;BME280;28752;48.266;7.402;2023-04-06T01:51:50;99628.81;;;1.59;70.79
43147;BME280;28752;48.266;7.402;2023-04-06T01:54:17;99621.56;;;1.48;70.87
43147;BME280;28752;48.266;7.402;2023-04-06T01:56:42;99624.94;;;1.50;72.11
43147;BME280;28752;48.266;7.402;2023-04-06T01:59:07;99629.66;;;1.44;71.68
43147;BME280;28752;48.266;7.402;2023-04-06T02:01:33;99623.06;;;1.36;71.08
43147;BME280;28752;48.266;7.402;2023-04-06T02:03:58;99638.16;;;1.31;71.42
43147;BME280;28752;48.266;7.402;2023-04-06T02:06:23;99636.09;;;1.20;71.56
43147;BME280;28752;48.266;7.402;2023-04-06T02:08:49;99634.31;;;1.21;73.44
43147;BME280;28752;48.266;7.402;2023-04-06T02:11:15;99639.72;;;1.18;74.33
43147;BME280;28752;48.266;7.402;2023-04-06T02:13:40;99634.56;;;1.16;74.65
43147;BME280;28752;48.266;7.402;2023-04-06T02:16:06;99626.00;;;1.14;74.35
43147;BME280;28752;48.266;7.402;2023-04-06T02:18:31;99643.06;;;1.20;74.39
43147;BME280;28752;48.266;7.402;2023-04-06T02:20:57;99630.50;;;1.11;74.36
43147;BME280;28752;48.266;7.402;2023-04-06T02:23:22;99637.66;;;1.07;74.84
43147;BME280;28752;48.266;7.402;2023-04-06T02:25:47;99633.44;;;1.04;74.94
43147;BME280;28752;48.266;7.402;2023-04-06T02:28:13;99632.84;;;0.99;74.61
43147;BME280;28752;48.266;7.402;2023-04-06T02:30:39;99633.09;;;0.95;75.55
43147;BME280;28752;48.266;7.402;2023-04-06T02:33:04;99641.34;;;1.03;76.32
43147;BME280;28752;48.266;7.402;2023-04-06T02:35:30;99634.72;;;0.97;76.86
43147;BME280;28752;48.266;7.402;2023-04-06T02:37:56;99636.25;;;0.84;77.58
43147;BME280;28752;48.266;7.402;2023-04-06T02:40:21;99633.56;;;0.85;77.14
43147;BME280;28752;48.266;7.402;2023-04-06T02:42:47;99631.88;;;0.84;77.93
43147;BME280;28752;48.266;7.402;2023-04-06T02:45:13;99621.47;;;0.84;78.26
43147;BME280;28752;48.266;7.402;2023-04-06T02:47:38;99630.25;;;0.82;75.84
43147;BME280;28752;48.266;7.402;2023-04-06T02:50:04;99622.84;;;0.74;74.82
43147;BME280;28752;48.266;7.402;2023-04-06T02:52:30;99631.38;;;0.78;76.29
43147;BME280;28752;48.266;7.402;2023-04-06T02:54:55;99611.81;;;0.69;76.89
43147;BME280;28752;48.266;7.402;2023-04-06T02:57:20;99625.28;;;0.77;77.26
43147;BME280;28752;48.266;7.402;2023-04-06T02:59:46;99626.47;;;0.72;76.74
43147;BME280;28752;48.266;7.402;2023-04-06T03:02:11;99627.53;;;0.67;76.90
43147;BME280;28752;48.266;7.402;2023-04-06T03:04:37;99627.38;;;0.70;77.12
43147;BME280;28752;48.266;7.402;2023-04-06T03:07:02;99631.13;;;0.65;77.93
43147;BME280;28752;48.266;7.402;2023-04-06T03:09:27;99630.38;;;0.63;77.81
43147;BME280;28752;48.266;7.402;2023-04-06T03:11:53;99620.44;;;0.53;78.02
43147;BME280;28752;48.266;7.402;2023-04-06T03:14:18;99621.72;;;0.62;78.28
43147;BME280;28752;48.266;7.402;2023-04-06T03:16:48;99627.53;;;0.67;77.97
43147;BME280;28752;48.266;7.402;2023-04-06T03:19:14;99629.59;;;0.61;78.14
43147;BME280;28752;48.266;7.402;2023-04-06T03:21:39;99634.81;;;0.61;79.09
43147;BME280;28752;48.266;7.402;2023-04-06T03:24:05;99628.09;;;0.57;77.87
43147;BME280;28752;48.266;7.402;2023-04-06T03:26:31;99630.63;;;0.58;77.10
43147;BME280;28752;48.266;7.402;2023-04-06T03:28:56;99625.78;;;0.50;77.99
43147;BME280;28752;48.266;7.402;2023-04-06T03:31:21;99635.13;;;0.55;77.21
43147;BME280;28752;48.266;7.402;2023-04-06T03:33:47;99643.31;;;0.47;78.37
43147;BME280;28752;48.266;7.402;2023-04-06T03:36:12;99638.41;;;0.41;78.91
43147;BME280;28752;48.266;7.402;2023-04-06T03:38:37;99637.50;;;0.42;80.16
43147;BME280;28752;48.266;7.402;2023-04-06T03:41:03;99632.44;;;0.39;80.57
43147;BME280;28752;48.266;7.402;2023-04-06T03:43:28;99630.00;;;0.35;79.41
43147;BME280;28752;48.266;7.402;2023-04-06T03:45:54;99624.13;;;0.32;79.44
43147;BME280;28752;48.266;7.402;2023-04-06T03:48:19;99613.28;;;0.22;79.34
43147;BME280;28752;48.266;7.402;2023-04-06T03:50:45;99645.00;;;0.30;79.44
43147;BME280;28752;48.266;7.402;2023-04-06T03:53:10;99644.94;;;0.32;79.94
43147;BME280;28752;48.266;7.402;2023-04-06T03:55:36;99643.41;;;0.28;80.57
43147;BME280;28752;48.266;7.402;2023-04-06T03:58:01;99639.84;;;0.29;80.99
43147;BME280;28752;48.266;7.402;2023-04-06T04:00:27;99639.03;;;0.28;80.18
43147;BME280;28752;48.266;7.402;2023-04-06T04:02:52;99642.91;;;0.20;80.98
43147;BME280;28752;48.266;7.402;2023-04-06T04:05:18;99631.00;;;0.15;80.72
43147;BME280;28752;48.266;7.402;2023-04-06T04:07:43;99635.56;;;0.10;81.46
43147;BME280;28752;48.266;7.402;2023-04-06T04:10:09;99644.84;;;0.16;82.27
43147;BME280;28752;48.266;7.402;2023-04-06T04:12:34;99649.66;;;0.24;81.21
43147;BME280;28752;48.266;7.402;2023-04-06T04:15:00;99643.84;;;0.19;81.14
43147;BME280;28752;48.266;7.402;2023-04-06T04:17:25;99661.00;;;0.23;82.01
43147;BME280;28752;48.266;7.402;2023-04-06T04:19:51;99659.41;;;0.20;80.37
43147;BME280;28752;48.266;7.402;2023-04-06T04:22:16;99651.66;;;0.19;80.38
43147;BME280;28752;48.266;7.402;2023-04-06T04:24:41;99656.00;;;0.18;80.79
43147;BME280;28752;48.266;7.402;2023-04-06T04:27:07;99644.00;;;0.15;80.81
43147;BME280;28752;48.266;7.402;2023-04-06T04:29:32;99650.72;;;0.20;81.07
43147;BME280;28752;48.266;7.402;2023-04-06T04:31:58;99652.72;;;0.14;81.58
43147;BME280;28752;48.266;7.402;2023-04-06T04:34:23;99662.84;;;0.21;81.16
43147;BME280;28752;48.266;7.402;2023-04-06T04:36:52;99670.19;;;0.12;81.55
43147;BME280;28752;48.266;7.402;2023-04-06T04:39:17;99661.38;;;0.15;82.00
43147;BME280;28752;48.266;7.402;2023-04-06T04:41:43;99671.03;;;0.13;81.80
43147;BME280;28752;48.266;7.402;2023-04-06T04:44:08;99657.69;;;0.02;81.46
43147;BME280;28752;48.266;7.402;2023-04-06T04:46:34;99675.41;;;0.12;80.92
43147;BME280;28752;48.266;7.402;2023-04-06T04:48:59;99675.63;;;0.08;81.20
43147;BME280;28752;48.266;7.402;2023-04-06T04:51:24;99669.41;;;0.10;80.45
43147;BME280;28752;48.266;7.402;2023-04-06T04:53:50;99681.22;;;0.17;81.01
43147;BME280;28752;48.266;7.402;2023-04-06T04:56:15;99679.75;;;0.12;79.37
43147;BME280;28752;48.266;7.402;2023-04-06T04:58:41;99672.31;;;0.04;79.71
43147;BME280;28752;48.266;7.402;2023-04-06T05:01:06;99683.44;;;0.08;80.41
43147;BME280;28752;48.266;7.402;2023-04-06T05:03:32;99678.78;;;0.14;79.18
43147;BME280;28752;48.266;7.402;2023-04-06T05:05:58;99682.69;;;0.23;79.94
43147;BME280;28752;48.266;7.402;2023-04-06T05:08:23;99691.53;;;0.38;79.94
43147;BME280;28752;48.266;7.402;2023-04-06T05:10:48;99687.47;;;0.50;78.97
43147;BME280;28752;48.266;7.402;2023-04-06T05:13:14;99684.31;;;0.61;78.14
43147;BME280;28752;48.266;7.402;2023-04-06T05:15:40;99672.59;;;0.69;77.94
43147;BME280;28752;48.266;7.402;2023-04-06T05:18:06;99685.56;;;0.88;77.53
43147;BME280;28752;48.266;7.402;2023-04-06T05:20:32;99676.34;;;0.99;77.60
43147;BME280;28752;48.266;7.402;2023-04-06T05:22:57;99685.19;;;1.12;78.00
43147;BME280;28752;48.266;7.402;2023-04-06T05:25:23;99685.94;;;1.32;76.59
43147;BME280;28752;48.266;7.402;2023-04-06T05:27:48;99689.50;;;1.47;75.53
43147;BME280;28752;48.266;7.402;2023-04-06T05:30:14;99686.75;;;1.66;75.02
43147;BME280;28752;48.266;7.402;2023-04-06T05:32:39;99690.97;;;1.68;72.88
43147;BME280;28752;48.266;7.402;2023-04-06T05:35:05;99684.56;;;1.58;72.31
43147;BME280;28752;48.266;7.402;2023-04-06T05:37:31;99676.25;;;1.67;72.50
43147;BME280;28752;48.266;7.402;2023-04-06T05:39:56;99679.44;;;1.88;71.95
43147;BME280;28752;48.266;7.402;2023-04-06T05:42:22;99690.88;;;2.18;71.44
43147;BME280;28752;48.266;7.402;2023-04-06T05:44:47;99686.44;;;2.50;70.18
43147;BME280;28752;48.266;7.402;2023-04-06T05:47:13;99691.84;;;2.77;69.74
43147;BME280;28752;48.266;7.402;2023-04-06T05:49:38;99694.97;;;2.98;67.88
43147;BME280;28752;48.266;7.402;2023-04-06T05:52:04;99693.50;;;3.23;66.90
43147;BME280;28752;48.266;7.402;2023-04-06T05:54:30;99694.53;;;3.49;65.29
43147;BME280;28752;48.266;7.402;2023-04-06T05:56:55;99702.81;;;3.85;64.25
43147;BME280;28752;48.266;7.402;2023-04-06T05:59:20;99704.19;;;4.32;63.15
43147;BME280;28752;48.266;7.402;2023-04-06T06:01:46;99693.13;;;5.07;60.70
43147;BME280;28752;48.266;7.402;2023-04-06T06:04:11;99698.88;;;5.51;58.94
43147;BME280;28752;48.266;7.402;2023-04-06T06:06:37;99694.31;;;5.79;58.08
43147;BME280;28752;48.266;7.402;2023-04-06T06:09:02;99695.56;;;5.99;57.00
43147;BME280;28752;48.266;7.402;2023-04-06T06:11:29;99697.31;;;6.35;55.51
43147;BME280;28752;48.266;7.402;2023-04-06T06:13:55;99702.91;;;6.31;55.47
43147;BME280;28752;48.266;7.402;2023-04-06T06:16:20;99699.31;;;7.03;53.00
43147;BME280;28752;48.266;7.402;2023-04-06T06:18:46;99708.59;;;7.31;52.01
43147;BME280;28752;48.266;7.402;2023-04-06T06:21:11;99698.91;;;7.77;50.20
43147;BME280;28752;48.266;7.402;2023-04-06T06:23:38;99702.22;;;9.20;48.34
43147;BME280;28752;48.266;7.402;2023-04-06T06:26:03;99704.22;;;10.49;45.83
43147;BME280;28752;48.266;7.402;2023-04-06T06:28:29;99696.88;;;11.67;41.98
43147;BME280;28752;48.266;7.402;2023-04-06T06:30:55;99702.28;;;12.85;40.13
43147;BME280;28752;48.266;7.402;2023-04-06T06:33:20;99707.38;;;13.49;38.64
43147;BME280;28752;48.266;7.402;2023-04-06T06:35:45;99705.38;;;13.51;37.99
43147;BME280;28752;48.266;7.402;2023-04-06T06:38:11;99701.53;;;14.31;37.55
43147;BME280;28752;48.266;7.402;2023-04-06T06:40:36;99698.94;;;14.72;36.98
43147;BME280;28752;48.266;7.402;2023-04-06T06:43:02;99698.28;;;15.84;35.46
43147;BME280;28752;48.266;7.402;2023-04-06T06:45:28;99699.03;;;16.01;34.32
43147;BME280;28752;48.266;7.402;2023-04-06T06:47:55;99699.31;;;16.37;34.01
43147;BME280;28752;48.266;7.402;2023-04-06T06:50:20;99701.81;;;16.07;34.02
43147;BME280;28752;48.266;7.402;2023-04-06T06:52:45;99700.28;;;16.13;33.63
43147;BME280;28752;48.266;7.402;2023-04-06T06:55:14;99697.09;;;16.17;33.14
43147;BME280;28752;48.266;7.402;2023-04-06T06:57:40;99682.41;;;16.45;33.54
43147;BME280;28752;48.266;7.402;2023-04-06T07:00:08;99706.47;;;15.66;34.05
43147;BME280;28752;48.266;7.402;2023-04-06T07:02:34;99694.59;;;16.16;33.38
43147;BME280;28752;48.266;7.402;2023-04-06T07:05:01;99695.16;;;16.58;33.08
43147;BME280;28752;48.266;7.402;2023-04-06T07:07:26;99697.47;;;17.07;32.28
43147;BME280;28752;48.266;7.402;2023-04-06T07:09:52;99699.31;;;17.21;32.34
43147;BME280;28752;48.266;7.402;2023-04-06T07:12:17;99693.81;;;17.38;32.53
43147;BME280;28752;48.266;7.402;2023-04-06T07:14:42;99691.97;;;17.98;31.14
43147;BME280;28752;48.266;7.402;2023-04-06T07:17:08;99697.44;;;17.60;32.05
43147;BME280;28752;48.266;7.402;2023-04-06T07:19:34;99703.94;;;17.13;33.42
43147;BME280;28752;48.266;7.402;2023-04-06T07:22:00;99703.44;;;16.48;34.42
43147;BME280;28752;48.266;7.402;2023-04-06T07:24:26;99706.53;;;15.49;35.92
43147;BME280;28752;48.266;7.402;2023-04-06T07:26:51;99704.56;;;15.91;35.64
43147;BME280;28752;48.266;7.402;2023-04-06T07:29:17;99701.09;;;15.26;36.85
43147;BME280;28752;48.266;7.402;2023-04-06T07:31:43;99708.09;;;15.10;37.41
43147;BME280;28752;48.266;7.402;2023-04-06T07:34:08;99699.75;;;15.22;37.23
43147;BME280;28752;48.266;7.402;2023-04-06T07:36:33;99703.59;;;15.27;37.37
43147;BME280;28752;48.266;7.402;2023-04-06T07:38:59;99669.44;;;14.57;37.41
43147;BME280;28752;48.266;7.402;2023-04-06T07:41:24;99704.19;;;14.39;38.56
43147;BME280;28752;48.266;7.402;2023-04-06T07:43:50;99700.25;;;13.31;39.34
43147;BME280;28752;48.266;7.402;2023-04-06T07:46:16;99693.41;;;12.58;40.15
43147;BME280;28752;48.266;7.402;2023-04-06T07:48:41;99705.97;;;12.20;41.40
43147;BME280;28752;48.266;7.402;2023-04-06T07:51:07;99701.72;;;11.72;42.53
43147;BME280;28752;48.266;7.402;2023-04-06T07:53:33;99667.13;;;11.36;44.03
43147;BME280;28752;48.266;7.402;2023-04-06T07:55:59;99699.72;;;11.46;44.07
43147;BME280;28752;48.266;7.402;2023-04-06T07:58:25;99704.06;;;11.47;44.33
43147;BME280;28752;48.266;7.402;2023-04-06T08:00:50;99694.09;;;11.22;45.17
43147;BME280;28752;48.266;7.402;2023-04-06T08:03:15;99687.44;;;11.08;44.71
43147;BME280;28752;48.266;7.402;2023-04-06T08:05:42;99690.19;;;11.26;46.91
43147;BME280;28752;48.266;7.402;2023-04-06T08:08:08;99686.91;;;11.04;45.19
43147;BME280;28752;48.266;7.402;2023-04-06T08:10:34;99687.03;;;10.93;44.89
43147;BME280;28752;48.266;7.402;2023-04-06T08:13:00;99683.00;;;10.98;45.67
43147;BME280;28752;48.266;7.402;2023-04-06T08:15:25;99685.47;;;11.10;44.82
43147;BME280;28752;48.266;7.402;2023-04-06T08:17:51;99686.63;;;11.07;45.03
43147;BME280;28752;48.266;7.402;2023-04-06T08:20:17;99691.00;;;11.26;45.27
43147;BME280;28752;48.266;7.402;2023-04-06T08:22:42;99684.38;;;11.50;45.25
43147;BME280;28752;48.266;7.402;2023-04-06T08:25:07;99684.19;;;11.61;45.11
43147;BME280;28752;48.266;7.402;2023-04-06T08:27:33;99684.25;;;11.51;45.54
43147;BME280;28752;48.266;7.402;2023-04-06T08:29:58;99686.91;;;11.51;45.27
43147;BME280;28752;48.266;7.402;2023-04-06T08:32:25;99686.63;;;11.45;43.40
43147;BME280;28752;48.266;7.402;2023-04-06T08:34:52;99688.97;;;11.58;44.86
43147;BME280;28752;48.266;7.402;2023-04-06T08:37:18;99682.41;;;11.62;44.60
43147;BME280;28752;48.266;7.402;2023-04-06T08:39:43;99691.91;;;11.82;43.84
43147;BME280;28752;48.266;7.402;2023-04-06T08:42:20;99690.59;;;11.68;43.89
43147;BME280;28752;48.266;7.402;2023-04-06T08:44:48;99685.25;;;11.78;42.80
43147;BME280;28752;48.266;7.402;2023-04-06T08:47:14;99691.25;;;11.43;42.65
43147;BME280;28752;48.266;7.402;2023-04-06T08:49:40;99692.78;;;11.83;43.58
43147;BME280;28752;48.266;7.402;2023-04-06T08:52:07;99689.72;;;12.05;42.71
43147;BME280;28752;48.266;7.402;2023-04-06T08:54:36;99694.06;;;12.24;42.42
43147;BME280;28752;48.266;7.402;2023-04-06T08:57:02;99694.25;;;12.41;40.88
43147;BME280;28752;48.266;7.402;2023-04-06T08:59:28;99685.44;;;12.58;40.26
43147;BME280;28752;48.266;7.402;2023-04-06T09:01:54;99688.94;;;12.59;40.23
43147;BME280;28752;48.266;7.402;2023-04-06T09:04:20;99686.13;;;12.60;40.59
43147;BME280;28752;48.266;7.402;2023-04-06T09:06:46;99685.81;;;12.64;41.07
43147;BME280;28752;48.266;7.402;2023-04-06T09:09:11;99676.19;;;12.44;41.33
43147;BME280;28752;48.266;7.402;2023-04-06T09:11:47;99685.47;;;12.40;41.79
43147;BME280;28752;48.266;7.402;2023-04-06T09:14:13;99676.78;;;12.74;42.47
43147;BME280;28752;48.266;7.402;2023-04-06T09:16:41;99680.44;;;13.00;41.89
43147;BME280;28752;48.266;7.402;2023-04-06T09:19:07;99680.66;;;13.06;40.44
43147;BME280;28752;48.266;7.402;2023-04-06T09:21:32;99676.16;;;13.07;41.35
43147;BME280;28752;48.266;7.402;2023-04-06T09:23:59;99680.88;;;13.13;41.53
43147;BME280;28752;48.266;7.402;2023-04-06T09:26:25;99681.59;;;12.97;41.40
43147;BME280;28752;48.266;7.402;2023-04-06T09:28:58;99676.91;;;13.17;40.42
43147;BME280;28752;48.266;7.402;2023-04-06T09:31:28;99678.31;;;13.29;41.59
43147;BME280;28752;48.266;7.402;2023-04-06T09:33:55;99679.09;;;13.48;40.79
43147;BME280;28752;48.266;7.402;2023-04-06T09:36:35;99681.28;;;13.53;40.36
43147;BME280;28752;48.266;7.402;2023-04-06T09:39:04;99676.25;;;13.76;39.65
43147;BME280;28752;48.266;7.402;2023-04-06T09:41:34;99672.13;;;13.47;40.69
43147;BME280;28752;48.266;7.402;2023-04-06T09:44:07;99679.06;;;13.40;40.15
43147;BME280;28752;48.266;7.402;2023-04-06T09:46:35;99675.13;;;13.52;39.53
43147;BME280;28752;48.266;7.402;2023-04-06T09:49:04;99667.09;;;13.78;40.19
43147;BME280;28752;48.266;7.402;2023-04-06T09:51:32;99665.22;;;13.62;39.72
43147;BME280;28752;48.266;7.402;2023-04-06T09:54:01;99662.66;;;13.53;40.13
43147;BME280;28752;48.266;7.402;2023-04-06T09:56:37;99661.19;;;13.58;41.36
43147;BME280;28752;48.266;7.402;2023-04-06T09:59:08;99671.09;;;13.40;40.67
43147;BME280;28752;48.266;7.402;2023-04-06T10:01:38;99664.91;;;13.65;41.46
43147;BME280;28752;48.266;7.402;2023-04-06T10:04:41;99659.25;;;13.68;41.04
43147;BME280;28752;48.266;7.402;2023-04-06T10:07:09;99656.78;;;13.75;40.72
43147;BME280;28752;48.266;7.402;2023-04-06T10:09:37;99663.09;;;13.74;39.93
43147;BME280;28752;48.266;7.402;2023-04-06T10:12:04;99654.66;;;13.79;39.89
43147;BME280;28752;48.266;7.402;2023-04-06T10:14:34;99659.47;;;13.83;39.63
43147;BME280;28752;48.266;7.402;2023-04-06T10:17:03;99666.44;;;13.84;39.71
43147;BME280;28752;48.266;7.402;2023-04-06T10:19:52;99666.72;;;14.16;39.13
43147;BME280;28752;48.266;7.402;2023-04-06T10:22:32;99662.06;;;14.34;39.04
43147;BME280;28752;48.266;7.402;2023-04-06T10:25:01;99658.72;;;14.24;38.82
43147;BME280;28752;48.266;7.402;2023-04-06T10:27:28;99662.75;;;14.36;38.82
43147;BME280;28752;48.266;7.402;2023-04-06T10:30:01;99658.72;;;14.08;39.18
43147;BME280;28752;48.266;7.402;2023-04-06T10:32:37;99660.19;;;14.10;39.26
43147;BME280;28752;48.266;7.402;2023-04-06T10:35:10;99659.53;;;14.16;39.23
43147;BME280;28752;48.266;7.402;2023-04-06T10:37:53;99659.75;;;14.31;39.56
43147;BME280;28752;48.266;7.402;2023-04-06T10:40:23;99652.94;;;14.53;39.40
43147;BME280;28752;48.266;7.402;2023-04-06T10:42:50;99658.63;;;14.75;39.13
43147;BME280;28752;48.266;7.402;2023-04-06T10:45:23;99645.47;;;14.82;39.13
43147;BME280;28752;48.266;7.402;2023-04-06T10:47:50;99652.44;;;15.16;39.09
43147;BME280;28752;48.266;7.402;2023-04-06T10:50:17;99640.75;;;15.08;39.19
43147;BME280;28752;48.266;7.402;2023-04-06T10:52:46;99640.97;;;14.99;38.71
43147;BME280;28752;48.266;7.402;2023-04-06T10:55:13;99641.06;;;15.14;37.74
43147;BME280;28752;48.266;7.402;2023-04-06T10:57:40;99638.47;;;15.53;37.96
43147;BME280;28752;48.266;7.402;2023-04-06T11:00:06;99623.72;;;15.26;38.23
43147;BME280;28752;48.266;7.402;2023-04-06T11:02:34;99634.38;;;15.34;37.95
43147;BME280;28752;48.266;7.402;2023-04-06T11:04:59;99637.50;;;15.38;36.98
43147;BME280;28752;48.266;7.402;2023-04-06T11:07:28;99640.72;;;15.25;36.66
43147;BME280;28752;48.266;7.402;2023-04-06T11:09:55;99634.31;;;14.78;36.19
43147;BME280;28752;48.266;7.402;2023-04-06T11:12:25;99627.81;;;14.97;37.76
43147;BME280;28752;48.266;7.402;2023-04-06T11:14:59;99622.41;;;15.22;37.77
43147;BME280;28752;48.266;7.402;2023-04-06T11:17:35;99622.69;;;15.35;37.32
43147;BME280;28752;48.266;7.402;2023-04-06T11:20:02;99614.47;;;15.53;37.65
43147;BME280;28752;48.266;7.402;2023-04-06T11:22:28;99615.38;;;15.69;36.66
43147;BME280;28752;48.266;7.402;2023-04-06T11:25:04;99605.47;;;15.46;36.90
43147;BME280;28752;48.266;7.402;2023-04-06T11:27:31;99585.47;;;15.42;36.04
43147;BME280;28752;48.266;7.402;2023-04-06T11:29:58;99610.41;;;15.57;35.71
43147;BME280;28752;48.266;7.402;2023-04-06T11:32:24;99599.41;;;15.60;36.08
43147;BME280;28752;48.266;7.402;2023-04-06T11:34:49;99602.81;;;15.86;36.78
43147;BME280;28752;48.266;7.402;2023-04-06T11:37:15;99602.50;;;15.72;35.95
43147;BME280;28752;48.266;7.402;2023-04-06T11:42:11;99597.13;;;15.89;34.63
43147;BME280;28752;48.266;7.402;2023-04-06T11:44:43;99594.31;;;15.74;34.84
43147;BME280;28752;48.266;7.402;2023-04-06T11:47:11;99589.66;;;16.07;36.56
43147;BME280;28752;48.266;7.402;2023-04-06T11:49:37;99593.19;;;16.23;34.44
43147;BME280;28752;48.266;7.402;2023-04-06T11:52:23;99595.44;;;16.11;33.75
43147;BME280;28752;48.266;7.402;2023-04-06T11:54:50;99577.69;;;16.41;34.36
43147;BME280;28752;48.266;7.402;2023-04-06T11:57:16;99587.88;;;16.46;32.95
43147;BME280;28752;48.266;7.402;2023-04-06T11:59:42;99585.66;;;16.49;32.61
43147;BME280;28752;48.266;7.402;2023-04-06T12:02:08;99566.31;;;16.47;32.24
43147;BME280;28752;48.266;7.402;2023-04-06T12:04:33;99579.56;;;16.17;32.07
43147;BME280;28752;48.266;7.402;2023-04-06T12:06:59;99572.78;;;16.30;33.81
43147;BME280;28752;48.266;7.402;2023-04-06T12:09:25;99581.44;;;16.70;33.79
43147;BME280;28752;48.266;7.402;2023-04-06T12:11:50;99577.72;;;16.56;33.16
43147;BME280;28752;48.266;7.402;2023-04-06T12:14:16;99563.81;;;16.23;32.93
43147;BME280;28752;48.266;7.402;2023-04-06T12:16:42;99574.97;;;16.49;32.29
43147;BME280;28752;48.266;7.402;2023-04-06T12:19:07;99570.94;;;16.83;32.06
43147;BME280;28752;48.266;7.402;2023-04-06T12:21:34;99571.97;;;16.67;31.81
43147;BME280;28752;48.266;7.402;2023-04-06T12:24:02;99571.47;;;16.87;31.98
43147;BME280;28752;48.266;7.402;2023-04-06T12:26:27;99546.13;;;16.60;31.31
43147;BME280;28752;48.266;7.402;2023-04-06T12:28:53;99564.63;;;16.46;31.79
43147;BME280;28752;48.266;7.402;2023-04-06T12:31:20;99557.69;;;16.75;32.48
43147;BME280;28752;48.266;7.402;2023-04-06T12:33:47;99566.19;;;16.94;32.02
43147;BME280;28752;48.266;7.402;2023-04-06T12:36:17;99563.25;;;16.89;31.56
43147;BME280;28752;48.266;7.402;2023-04-06T12:38:47;99559.38;;;16.91;32.33
43147;BME280;28752;48.266;7.402;2023-04-06T12:41:13;99555.97;;;17.12;32.52
43147;BME280;28752;48.266;7.402;2023-04-06T12:43:40;99549.78;;;17.27;31.71
43147;BME280;28752;48.266;7.402;2023-04-06T12:46:06;99554.13;;;17.13;31.28
43147;BME280;28752;48.266;7.402;2023-04-06T12:48:31;99554.19;;;16.75;31.78
43147;BME280;28752;48.266;7.402;2023-04-06T12:50:58;99556.84;;;16.37;32.92
43147;BME280;28752;48.266;7.402;2023-04-06T12:53:24;99549.53;;;16.54;32.70
43147;BME280;28752;48.266;7.402;2023-04-06T12:55:49;99542.47;;;16.76;32.34
43147;BME280;28752;48.266;7.402;2023-04-06T12:58:15;99551.59;;;16.81;31.29
43147;BME280;28752;48.266;7.402;2023-04-06T13:00:41;99551.59;;;16.81;32.20
43147;BME280;28752;48.266;7.402;2023-04-06T13:03:07;99548.97;;;17.11;32.59